Nova Alvorada, Brazil
Current Conditions -  °F | °C
As of 4:00 PM on Sunday 21 Dec 2014 (Local Time) from SBCG Reporting Station
Scattered Clouds Scattered Clouds  
Wind Chill: 84°   Ceiling: Unl
Heat Index: 88°   Visibility: 6mi
Dew Point: 70°   Wind: 23mph
Humidity: 62%   Direction: 330°NNW
Pressure: 29.77"   Gusts: NA
Location:  21.47°S, 54.37°W
Report Text: SBCG 211900Z 33020KT 9999 SCT043 FEW050TCU 29/21 Q1008
Loading
Personal Weather Stations






























Interactive Weather Map New forecast layout! Learn more

10-Day Weather Forecast

Advertisements
Track Severe Weather on mobile